PWSweather.com
Personal Weather Stations
Station Observations
STEFBZH56
PontScorff, PontScorffFR

PontScorffPontScorffFR

Lat: 47.831518, Lon: -3.4222200000000385

Elevation: 141

Station Type: Oregon WMR200

http://www.meteo-pontscorff.fr

Latest ConditionsUpdated 5:55:00 AM GMT+01:01 Wednesday, Apr 24, 2019
Currently Today's Max Today's Min Today's Average
Temperature 49.6°F9.8°C 53.9°F12.2°C 49.6°F9.8°C 52.1°F11.2°C
Dew Point 49.1°F9.5°C 52.8°F11.6°C 49.1°F9.5°C 50.4°F10.2°C
Winds Calm Calm 3.5 mph -5.6 kmh - - 2.1 mph 3.4 kmh
Wind Gusts -- 7.8 mph12.6 kmh - -
Humidity 98% 98% 88% 94%
Pressure 29.27 in991.2 mb 29.33 in993.2 mb 29.27 in991.2 mb -
Precipitation - 0.04 in1.0 mm - -
Hour Temp Dew Point Humidity Winds Wind Gusts Pressure Precip Precip Rate Daily Precip Total
05:55 AM 49.6°F9.8°C 49.1°F9.5°C 98% Calm Calm -- 29.27 in991.2 mb 0.00 in0.0 mm 0.00 in0.0 mm 0.04 in1.0 mm
05:50 AM 49.6°F9.8°C 49.1°F9.5°C 98% 0.1 mph WSW0.2 kmh WSW 1.3 mph2.1 kmh 29.27 in991.2 mb 0.00 in0.0 mm 0.00 in0.0 mm 0.04 in1.0 mm
05:45 AM 49.7°F9.8°C 49.1°F9.5°C 98% 0.3 mph S0.5 kmh S 1.6 mph2.6 kmh 29.27 in991.2 mb 0.00 in0.0 mm 0.00 in0.0 mm 0.04 in1.0 mm
05:40 AM 49.8°F9.9°C 49.3°F9.6°C 98% 0.2 mph SSW0.3 kmh SSW 1.8 mph2.9 kmh 29.27 in991.2 mb 0.00 in0.0 mm 0.00 in0.0 mm 0.04 in1.0 mm
05:35 AM 49.9°F9.9°C 49.4°F9.7°C 98% 0.4 mph SW0.6 kmh SW 2.5 mph4.0 kmh 29.29 in991.9 mb 0.00 in0.0 mm 0.00 in0.0 mm 0.04 in1.0 mm
05:30 AM 50.0°F10.0°C 49.5°F9.7°C 98% 0.4 mph WSW0.6 kmh WSW 1.8 mph2.9 kmh 29.30 in992.2 mb 0.00 in0.0 mm 0.00 in0.0 mm 0.04 in1.0 mm
05:25 AM 50.2°F10.1°C 49.6°F9.8°C 98% 2.1 mph WSW3.4 kmh WSW 3.8 mph6.1 kmh 29.30 in992.2 mb 0.00 in0.0 mm 0.00 in0.0 mm 0.04 in1.0 mm
05:20 AM 50.4°F10.2°C 49.8°F9.9°C 98% 2.0 mph WSW3.2 kmh WSW 3.8 mph6.1 kmh 29.28 in991.5 mb 0.00 in0.0 mm 0.00 in0.0 mm 0.04 in1.0 mm
05:15 AM 50.4°F10.2°C 49.9°F9.9°C 98% 2.6 mph WSW4.2 kmh WSW 4.3 mph6.9 kmh 29.27 in991.2 mb 0.00 in0.0 mm 0.00 in0.0 mm 0.04 in1.0 mm
05:10 AM 50.5°F10.3°C 50.0°F10.0°C 98% 2.6 mph WSW4.2 kmh WSW 4.9 mph7.9 kmh 29.27 in991.2 mb 0.00 in0.0 mm 0.00 in0.0 mm 0.04 in1.0 mm
05:05 AM 50.5°F10.3°C 49.9°F9.9°C 98% 1.0 mph SSE1.6 kmh SSE 3.8 mph6.1 kmh 29.29 in991.9 mb 0.00 in0.0 mm 0.00 in0.0 mm 0.04 in1.0 mm
05:00 AM 50.4°F10.2°C 49.8°F9.9°C 98% 0.5 mph SSE0.8 kmh SSE 1.8 mph2.9 kmh 29.30 in992.2 mb 0.00 in0.0 mm 0.00 in0.0 mm 0.04 in1.0 mm
04:55 AM 50.4°F10.2°C 49.9°F9.9°C 98% 0.2 mph SSE0.3 kmh SSE 1.6 mph2.6 kmh 29.30 in992.2 mb 0.00 in0.0 mm 0.00 in0.0 mm 0.04 in1.0 mm
04:50 AM 50.5°F10.3°C 50.0°F10.0°C 98% 0.2 mph SSW0.3 kmh SSW 1.6 mph2.6 kmh 29.30 in992.2 mb 0.00 in0.0 mm 0.00 in0.0 mm 0.04 in1.0 mm
04:45 AM 50.5°F10.3°C 50.0°F10.0°C 98% 0.6 mph SSW1.0 kmh SSW 2.7 mph4.3 kmh 29.30 in992.2 mb 0.00 in0.0 mm 0.00 in0.0 mm 0.04 in1.0 mm
04:40 AM 50.7°F10.4°C 50.2°F10.1°C 98% 0.5 mph SW0.8 kmh SW 2.0 mph3.2 kmh 29.30 in992.2 mb 0.00 in0.0 mm 0.00 in0.0 mm 0.04 in1.0 mm
04:35 AM 50.7°F10.4°C 50.2°F10.1°C 98% 0.9 mph SW1.4 kmh SW 1.8 mph2.9 kmh 29.30 in992.2 mb 0.00 in0.0 mm 0.00 in0.0 mm 0.04 in1.0 mm
04:30 AM 50.9°F10.5°C 50.3°F10.2°C 98% 1.8 mph SW2.9 kmh SW 3.8 mph6.1 kmh 29.30 in992.2 mb 0.00 in0.0 mm 0.00 in0.0 mm 0.04 in1.0 mm
04:25 AM 50.9°F10.5°C 50.4°F10.2°C 98% 1.5 mph WSW2.4 kmh WSW 5.1 mph8.2 kmh 29.30 in992.2 mb 0.00 in0.0 mm 0.00 in0.0 mm 0.04 in1.0 mm
04:20 AM 51.1°F10.6°C 50.5°F10.3°C 98% 2.0 mph WSW3.2 kmh WSW 3.8 mph6.1 kmh 29.30 in992.2 mb 0.00 in0.0 mm 0.00 in0.0 mm 0.04 in1.0 mm
04:15 AM 51.2°F10.7°C 50.6°F10.3°C 98% 2.8 mph WSW4.5 kmh WSW 4.0 mph6.4 kmh 29.30 in992.2 mb 0.04 in1.0 mm 0.00 in0.0 mm 0.04 in1.0 mm
04:10 AM 51.3°F10.7°C 50.8°F10.4°C 98% 3.0 mph WSW4.8 kmh WSW 5.4 mph8.7 kmh 29.30 in992.2 mb 0.04 in1.0 mm 0.00 in0.0 mm 0.04 in1.0 mm
04:05 AM 51.4°F10.8°C 50.9°F10.5°C 98% 3.2 mph WSW5.1 kmh WSW 6.0 mph9.7 kmh 29.30 in992.2 mb 0.04 in1.0 mm 0.48 in12.2 mm 0.04 in1.0 mm
04:00 AM 51.4°F10.8°C 50.7°F10.4°C 97% 3.3 mph SW5.3 kmh SW 6.3 mph10.1 kmh 29.30 in992.2 mb 0.00 in0.0 mm 0.00 in0.0 mm 0.00 in0.0 mm
03:55 AM 51.6°F10.9°C 50.7°F10.4°C 97% 2.6 mph WSW4.2 kmh WSW 4.3 mph6.9 kmh 29.30 in992.2 mb 0.00 in0.0 mm 0.00 in0.0 mm 0.00 in0.0 mm
03:50 AM 51.6°F10.9°C 50.8°F10.4°C 97% 2.6 mph SW4.2 kmh SW 6.0 mph9.7 kmh 29.30 in992.2 mb 0.00 in0.0 mm 0.00 in0.0 mm 0.00 in0.0 mm
03:45 AM 51.8°F11.0°C 50.8°F10.4°C 96% 3.1 mph SW5.0 kmh SW 6.0 mph9.7 kmh 29.30 in992.2 mb 0.00 in0.0 mm 0.00 in0.0 mm 0.00 in0.0 mm
03:40 AM 51.8°F11.0°C 50.7°F10.4°C 96% 2.3 mph SSW3.7 kmh SSW 4.5 mph7.2 kmh 29.30 in992.2 mb 0.00 in0.0 mm 0.00 in0.0 mm 0.00 in0.0 mm
03:35 AM 51.8°F11.0°C 50.6°F10.3°C 96% 2.2 mph SW3.5 kmh SW 4.0 mph6.4 kmh 29.28 in991.5 mb 0.00 in0.0 mm 0.00 in0.0 mm 0.00 in0.0 mm
03:30 AM 51.8°F11.0°C 50.4°F10.2°C 95% 2.1 mph SW3.4 kmh SW 4.5 mph7.2 kmh 29.27 in991.2 mb 0.00 in0.0 mm 0.00 in0.0 mm 0.00 in0.0 mm
03:25 AM 51.9°F11.1°C 50.5°F10.3°C 95% 3.3 mph SW5.3 kmh SW 6.0 mph9.7 kmh 29.27 in991.2 mb 0.00 in0.0 mm 0.00 in0.0 mm 0.00 in0.0 mm
03:20 AM 52.0°F11.1°C 50.3°F10.2°C 94% 2.3 mph SW3.7 kmh SW 3.6 mph5.8 kmh 29.29 in991.9 mb 0.00 in0.0 mm 0.00 in0.0 mm 0.00 in0.0 mm
03:15 AM 52.0°F11.1°C 50.3°F10.2°C 94% 1.9 mph SW3.1 kmh SW 5.1 mph8.2 kmh 29.30 in992.2 mb 0.00 in0.0 mm 0.00 in0.0 mm 0.00 in0.0 mm
03:10 AM 52.2°F11.2°C 50.5°F10.3°C 94% 1.5 mph SW2.4 kmh SW 5.1 mph8.2 kmh 29.30 in992.2 mb 0.00 in0.0 mm 0.00 in0.0 mm 0.00 in0.0 mm
03:05 AM 52.3°F11.3°C 50.4°F10.2°C 93% 3.4 mph SW5.5 kmh SW 6.3 mph10.1 kmh 29.30 in992.2 mb 0.00 in0.0 mm 0.00 in0.0 mm 0.00 in0.0 mm
03:00 AM 52.3°F11.3°C 50.0°F10.0°C 92% 3.4 mph SW5.5 kmh SW 7.4 mph11.9 kmh 29.30 in992.2 mb 0.00 in0.0 mm 0.00 in0.0 mm 0.00 in0.0 mm
02:55 AM 52.3°F11.3°C 49.8°F9.9°C 91% 2.1 mph SW3.4 kmh SW 5.4 mph8.7 kmh 29.30 in992.2 mb 0.00 in0.0 mm 0.00 in0.0 mm 0.00 in0.0 mm
02:50 AM 52.4°F11.3°C 49.9°F9.9°C 91% 2.8 mph SW4.5 kmh SW 6.3 mph10.1 kmh 29.30 in992.2 mb 0.00 in0.0 mm 0.00 in0.0 mm 0.00 in0.0 mm
02:45 AM 52.5°F11.4°C 49.7°F9.8°C 90% 2.6 mph SW4.2 kmh SW 6.3 mph10.1 kmh 29.30 in992.2 mb 0.00 in0.0 mm 0.00 in0.0 mm 0.00 in0.0 mm
02:40 AM 52.7°F11.5°C 49.7°F9.8°C 90% 2.7 mph WSW4.3 kmh WSW 5.1 mph8.2 kmh 29.30 in992.2 mb 0.00 in0.0 mm 0.00 in0.0 mm 0.00 in0.0 mm
02:35 AM 52.9°F11.6°C 49.6°F9.8°C 89% 3.5 mph SW5.6 kmh SW 6.3 mph10.1 kmh 29.32 in992.9 mb 0.00 in0.0 mm 0.00 in0.0 mm 0.00 in0.0 mm
02:30 AM 53.0°F11.7°C 49.5°F9.7°C 88% 3.0 mph SW4.8 kmh SW 6.0 mph9.7 kmh 29.33 in993.2 mb 0.00 in0.0 mm 0.00 in0.0 mm 0.00 in0.0 mm
02:25 AM 52.9°F11.6°C 49.5°F9.7°C 88% 3.3 mph WSW5.3 kmh WSW 7.8 mph12.6 kmh 29.33 in993.2 mb 0.00 in0.0 mm 0.00 in0.0 mm 0.00 in0.0 mm
02:20 AM 52.9°F11.6°C 49.3°F9.6°C 88% 2.6 mph SW4.2 kmh SW 5.1 mph8.2 kmh 29.31 in992.6 mb 0.00 in0.0 mm 0.00 in0.0 mm 0.00 in0.0 mm
02:15 AM 52.9°F11.6°C 49.5°F9.7°C 88% 3.4 mph WSW5.5 kmh WSW 7.4 mph11.9 kmh 29.30 in992.2 mb 0.00 in0.0 mm 0.00 in0.0 mm 0.00 in0.0 mm
02:10 AM 52.9°F11.6°C 49.7°F9.8°C 89% 3.1 mph SW5.0 kmh SW 5.4 mph8.7 kmh 29.30 in992.2 mb 0.00 in0.0 mm 0.00 in0.0 mm 0.00 in0.0 mm
02:05 AM 52.9°F11.6°C 49.8°F9.9°C 89% 3.0 mph WSW4.8 kmh WSW 5.8 mph9.3 kmh 29.32 in992.9 mb 0.00 in0.0 mm 0.00 in0.0 mm 0.00 in0.0 mm
02:00 AM 53.1°F11.7°C 49.9°F9.9°C 89% 1.8 mph SW2.9 kmh SW 4.3 mph6.9 kmh 29.33 in993.2 mb 0.00 in0.0 mm 0.00 in0.0 mm 0.00 in0.0 mm
01:55 AM 53.1°F11.7°C 50.1°F10.1°C 90% 2.3 mph SW3.7 kmh SW 4.3 mph6.9 kmh 29.33 in993.2 mb 0.00 in0.0 mm 0.00 in0.0 mm 0.00 in0.0 mm
01:50 AM 53.1°F11.7°C 50.2°F10.1°C 90% 0.5 mph SSW0.8 kmh SSW 3.4 mph5.5 kmh 29.33 in993.2 mb 0.00 in0.0 mm 0.00 in0.0 mm 0.00 in0.0 mm
01:45 AM 53.1°F11.7°C 50.2°F10.1°C 90% 2.7 mph WSW4.3 kmh WSW 4.9 mph7.9 kmh 29.33 in993.2 mb 0.00 in0.0 mm 0.00 in0.0 mm 0.00 in0.0 mm
01:40 AM 53.1°F11.7°C 50.2°F10.1°C 90% 2.7 mph SW4.3 kmh SW 6.7 mph10.8 kmh 29.33 in993.2 mb 0.00 in0.0 mm 0.00 in0.0 mm 0.00 in0.0 mm
01:35 AM 53.1°F11.7°C 50.2°F10.1°C 90% 2.5 mph SW4.0 kmh SW 5.1 mph8.2 kmh 29.33 in993.2 mb 0.00 in0.0 mm 0.00 in0.0 mm 0.00 in0.0 mm
01:30 AM 53.1°F11.7°C 50.2°F10.1°C 90% 1.7 mph SW2.7 kmh SW 3.6 mph5.8 kmh 29.33 in993.2 mb 0.00 in0.0 mm 0.00 in0.0 mm 0.00 in0.0 mm
01:25 AM 53.2°F11.8°C 50.0°F10.0°C 89% 2.2 mph WSW3.5 kmh WSW 3.8 mph6.1 kmh 29.33 in993.2 mb 0.00 in0.0 mm 0.00 in0.0 mm 0.00 in0.0 mm
01:20 AM 53.2°F11.8°C 50.1°F10.1°C 89% 2.7 mph SW4.3 kmh SW 4.9 mph7.9 kmh 29.33 in993.2 mb 0.00 in0.0 mm 0.00 in0.0 mm 0.00 in0.0 mm
01:15 AM 53.2°F11.8°C 50.1°F10.1°C 89% 3.1 mph WSW5.0 kmh WSW 4.5 mph7.2 kmh 29.33 in993.2 mb 0.00 in0.0 mm 0.00 in0.0 mm 0.00 in0.0 mm
01:10 AM 53.2°F11.8°C 50.4°F10.2°C 90% 2.7 mph WSW4.3 kmh WSW 4.5 mph7.2 kmh 29.33 in993.2 mb 0.00 in0.0 mm 0.00 in0.0 mm 0.00 in0.0 mm
01:05 AM 53.4°F11.9°C 50.6°F10.3°C 90% 1.7 mph SW2.7 kmh SW 4.0 mph6.4 kmh 29.33 in993.2 mb 0.00 in0.0 mm 0.00 in0.0 mm 0.00 in0.0 mm
01:00 AM 53.4°F11.9°C 50.7°F10.4°C 90% 2.8 mph SW4.5 kmh SW 5.8 mph9.3 kmh 29.33 in993.2 mb 0.00 in0.0 mm 0.00 in0.0 mm 0.00 in0.0 mm
12:55 AM 53.4°F11.9°C 50.9°F10.5°C 91% 2.6 mph SW4.2 kmh SW 4.5 mph7.2 kmh 29.33 in993.2 mb 0.00 in0.0 mm 0.00 in0.0 mm 0.00 in0.0 mm
12:50 AM 53.4°F11.9°C 51.2°F10.7°C 92% 3.3 mph WSW5.3 kmh WSW 5.4 mph8.7 kmh 29.33 in993.2 mb 0.00 in0.0 mm 0.00 in0.0 mm 0.00 in0.0 mm
12:45 AM 53.6°F12.0°C 51.9°F11.1°C 94% 2.3 mph SW3.7 kmh SW 4.9 mph7.9 kmh 29.33 in993.2 mb 0.00 in0.0 mm 0.00 in0.0 mm 0.00 in0.0 mm
12:40 AM 53.6°F12.0°C 51.9°F11.1°C 94% 2.5 mph SW4.0 kmh SW 4.5 mph7.2 kmh 29.33 in993.2 mb 0.00 in0.0 mm 0.00 in0.0 mm 0.00 in0.0 mm
12:35 AM 53.6°F12.0°C 52.2°F11.2°C 95% 3.0 mph SW4.8 kmh SW 6.5 mph10.5 kmh 29.33 in993.2 mb 0.00 in0.0 mm 0.00 in0.0 mm 0.00 in0.0 mm
12:30 AM 53.6°F12.0°C 52.2°F11.2°C 95% 1.3 mph SW2.1 kmh SW 3.8 mph6.1 kmh 29.33 in993.2 mb 0.00 in0.0 mm 0.00 in0.0 mm 0.00 in0.0 mm
12:25 AM 53.8°F12.1°C 52.4°F11.3°C 95% 2.0 mph SW3.2 kmh SW 3.8 mph6.1 kmh 29.33 in993.2 mb 0.00 in0.0 mm 0.00 in0.0 mm 0.00 in0.0 mm
12:20 AM 53.8°F12.1°C 52.4°F11.3°C 95% 1.8 mph SW2.9 kmh SW 4.0 mph6.4 kmh 29.33 in993.2 mb 0.00 in0.0 mm 0.00 in0.0 mm 0.00 in0.0 mm
12:15 AM 53.8°F12.1°C 52.5°F11.4°C 96% 2.7 mph SW4.3 kmh SW 4.9 mph7.9 kmh 29.33 in993.2 mb 0.00 in0.0 mm 0.00 in0.0 mm 0.00 in0.0 mm
12:10 AM 53.8°F12.1°C 52.5°F11.4°C 96% 2.5 mph SW4.0 kmh SW 4.9 mph7.9 kmh 29.33 in993.2 mb 0.00 in0.0 mm 0.00 in0.0 mm 0.00 in0.0 mm
12:05 AM 53.8°F12.1°C 52.6°F11.4°C 96% 1.4 mph SSW2.3 kmh SSW 2.9 mph4.7 kmh 29.33 in993.2 mb 0.00 in0.0 mm 0.00 in0.0 mm 0.00 in0.0 mm
12:00 AM 53.9°F12.2°C 52.8°F11.6°C 96% 1.4 mph SW2.3 kmh SW 3.1 mph5.0 kmh 29.33 in993.2 mb 0.00 in0.0 mm 0.00 in0.0 mm 0.00 in0.0 mm